Time;durP1;ratioP1;P1;durP2;ratioP2;P2;SDS_P1;SDS_P2;PMS_P1;PMS_P2;Temp;Humidity;BMP_temperature;BMP_pressure;BME280_temperature;BME280_humidity;BME280_pressure;Samples;Min_cycle;Max_cycle;Signal;HPM_P1;HPM_P2
2021/06/22 00:01:21;;;;;;;9.83;6.40;;;;;;;;;;5097432;28;20521;-59
2021/06/22 00:03:51;;;;;;;10.23;5.83;;;;;;;;;;5097589;28;20478;-54
2021/06/22 00:06:19;;;;;;;7.43;5.40;;;;;;;;;;5097865;28;20464;-56
2021/06/22 00:08:46;;;;;;;7.07;5.30;;;;;;;;;;5090765;28;20433;-57
2021/06/22 00:11:50;;;;;;;9.03;6.50;;;;;;;;;;5077914;28;20493;-60
2021/06/22 00:14:17;;;;;;;9.90;5.33;;;;;;;;;;5077166;28;20499;-58
2021/06/22 00:16:48;;;;;;;6.80;4.97;;;;;;;;;;5077206;28;20445;-58
2021/06/22 00:19:15;;;;;;;8.13;6.30;;;;;;;;;;5077400;28;20457;-53
2021/06/22 00:21:43;;;;;;;12.20;6.10;;;;;;;;;;5077427;28;20471;-61
2021/06/22 00:24:44;;;;;;;10.87;5.03;;;;;;;;;;5077760;28;20465;-61
2021/06/22 00:27:13;;;;;;;7.37;4.90;;;;;;;;;;5077652;28;20461;-55
2021/06/22 00:29:42;;;;;;;7.77;5.10;;;;;;;;;;5077498;28;20445;-60
2021/06/22 00:32:13;;;;;;;6.60;4.73;;;;;;;;;;5077046;28;20492;-58
2021/06/22 00:34:40;;;;;;;6.53;4.53;;;;;;;;;;5077515;28;20599;-53
2021/06/22 00:37:08;;;;;;;7.20;4.60;;;;;;;;;;5077959;28;20457;-52
2021/06/22 00:39:52;;;;;;;6.23;3.97;;;;;;;;;;5077584;28;20469;-55
2021/06/22 00:42:20;;;;;;;6.10;3.37;;;;;;;;;;5077652;28;20433;-58
2021/06/22 00:44:48;;;;;;;4.43;2.23;;;;;;;;;;5077447;28;20520;-58
2021/06/22 00:47:31;;;;;;;5.20;2.50;;;;;;;;;;5077113;28;20937;-55
2021/06/22 00:49:59;;;;;;;4.40;2.00;;;;;;;;;;5059492;28;20463;-59
2021/06/22 00:52:28;;;;;;;6.20;3.40;;;;;;;;;;5059599;28;20492;-54
2021/06/22 00:55:30;;;;;;;4.67;2.07;;;;;;;;;;5076887;28;20452;-57
2021/06/22 00:57:59;;;;;;;4.37;2.10;;;;;;;;;;5089239;28;20506;-59
2021/06/22 01:00:27;;;;;;;4.23;2.03;;;;;;;;;;5096680;28;20451;-55
2021/06/22 01:02:57;;;;;;;6.03;2.03;;;;;;;;;;5096908;28;20456;-53
2021/06/22 01:05:25;;;;;;;4.37;1.80;;;;;;;;;;5096015;28;20459;-55
2021/06/22 01:07:54;;;;;;;6.77;1.77;;;;;;;;;;5096700;28;20436;-54
2021/06/22 01:10:45;;;;;;;3.67;1.93;;;;;;;;;;5096274;28;20464;-56
2021/06/22 01:13:12;;;;;;;4.40;1.90;;;;;;;;;;5095808;28;20479;-56
2021/06/22 01:15:40;;;;;;;4.77;1.90;;;;;;;;;;5096496;28;20536;-60
2021/06/22 01:18:20;;;;;;;7.53;1.87;;;;;;;;;;5096381;28;20523;-53
2021/06/22 01:20:48;;;;;;;3.37;1.27;;;;;;;;;;5095180;28;21042;-55
2021/06/22 01:23:16;;;;;;;4.33;1.93;;;;;;;;;;5096405;28;20479;-57
2021/06/22 01:25:44;;;;;;;3.47;1.27;;;;;;;;;;5096314;28;20460;-52
2021/06/22 01:28:11;;;;;;;4.67;2.30;;;;;;;;;;5095892;28;20448;-58
2021/06/22 01:30:38;;;;;;;5.00;2.10;;;;;;;;;;5096503;28;20450;-56
2021/06/22 01:33:08;;;;;;;4.13;1.60;;;;;;;;;;5096279;28;20498;-55
2021/06/22 01:35:36;;;;;;;6.13;1.87;;;;;;;;;;5096201;28;20456;-53
2021/06/22 01:38:05;;;;;;;6.20;2.10;;;;;;;;;;5095740;28;20460;-56
2021/06/22 01:40:47;;;;;;;10.60;2.33;;;;;;;;;;5096019;28;20498;-56
2021/06/22 01:43:14;;;;;;;6.77;2.93;;;;;;;;;;5096384;28;20517;-54
2021/06/22 01:45:41;;;;;;;5.20;2.30;;;;;;;;;;5095894;28;20444;-53
2021/06/22 01:48:10;;;;;;;6.30;2.50;;;;;;;;;;5096052;28;20511;-56
2021/06/22 01:50:38;;;;;;;4.90;2.27;;;;;;;;;;5095747;28;20885;-53
2021/06/22 01:53:05;;;;;;;3.77;1.80;;;;;;;;;;5095902;28;20480;-56
2021/06/22 01:55:39;;;;;;;6.93;2.40;;;;;;;;;;5095885;28;20478;-52
2021/06/22 01:58:09;;;;;;;4.20;2.13;;;;;;;;;;5095851;28;20471;-54
2021/06/22 02:00:37;;;;;;;5.73;2.37;;;;;;;;;;5096608;28;20465;-53
2021/06/22 02:03:07;;;;;;;4.10;1.93;;;;;;;;;;5095998;28;20512;-53
2021/06/22 02:05:34;;;;;;;7.97;2.03;;;;;;;;;;5095677;28;20453;-57
2021/06/22 02:08:01;;;;;;;5.33;2.17;;;;;;;;;;5095522;28;20461;-59
2021/06/22 02:10:28;;;;;;;4.50;2.10;;;;;;;;;;5095953;28;20459;-53
2021/06/22 02:12:56;;;;;;;5.93;2.27;;;;;;;;;;5095636;28;20468;-56
2021/06/22 02:15:31;;;;;;;4.17;1.90;;;;;;;;;;5095834;28;20509;-53
2021/06/22 02:17:59;;;;;;;5.13;2.57;;;;;;;;;;5094984;28;20452;-61
2021/06/22 02:20:27;;;;;;;4.30;1.80;;;;;;;;;;5095603;28;20529;-55
2021/06/22 02:23:06;;;;;;;6.53;2.23;;;;;;;;;;5095748;28;20451;-53
2021/06/22 02:25:33;;;;;;;4.10;1.80;;;;;;;;;;5095288;28;20440;-60
2021/06/22 02:28:06;;;;;;;4.10;1.90;;;;;;;;;;5095853;28;20459;-58
2021/06/22 02:30:55;;;;;;;4.90;2.20;;;;;;;;;;5095479;28;20530;-51
2021/06/22 02:33:24;;;;;;;29.50;20.80;;;;;;;;;;5095658;28;20487;-56
2021/06/22 02:35:52;;;;;;;20.10;11.80;;;;;;;;;;5095284;28;20480;-60
2021/06/22 02:38:43;;;;;;;7.20;3.17;;;;;;;;;;5095276;28;20726;-61
2021/06/22 02:41:10;;;;;;;16.47;11.47;;;;;;;;;;5093500;28;20492;-55
2021/06/22 02:43:38;;;;;;;7.13;3.40;;;;;;;;;;5095315;28;20436;-57
2021/06/22 02:46:24;;;;;;;13.03;8.03;;;;;;;;;;5095436;28;20494;-59
2021/06/22 02:48:52;;;;;;;10.73;5.90;;;;;;;;;;5093653;28;20521;-59
2021/06/22 02:51:20;;;;;;;16.27;9.50;;;;;;;;;;5095624;28;20490;-55
2021/06/22 02:56:50;;;;;;;23.27;11.97;;;;;;;;;;5092987;28;20547;-58
2021/06/22 02:59:18;;;;;;;17.07;10.30;;;;;;;;;;5094799;28;20518;-59
2021/06/22 03:02:04;;;;;;;19.50;13.43;;;;;;;;;;5087642;28;20521;-56
2021/06/22 03:04:33;;;;;;;14.60;8.13;;;;;;;;;;5074947;28;20524;-62
2021/06/22 03:07:00;;;;;;;25.67;16.73;;;;;;;;;;5075590;28;20437;-60
2021/06/22 03:09:39;;;;;;;9.73;7.00;;;;;;;;;;5075032;28;20464;-53
2021/06/22 03:12:07;;;;;;;14.47;10.07;;;;;;;;;;5075227;28;20484;-58
2021/06/22 03:14:34;;;;;;;13.90;8.70;;;;;;;;;;5075593;28;20588;-55
2021/06/22 03:17:12;;;;;;;11.17;7.00;;;;;;;;;;5076627;28;20445;-53
2021/06/22 03:19:40;;;;;;;7.63;5.23;;;;;;;;;;5096457;28;20444;-56
2021/06/22 03:22:08;;;;;;;8.80;6.23;;;;;;;;;;5082311;28;20425;-55
2021/06/22 03:24:46;;;;;;;10.07;6.53;;;;;;;;;;5079531;28;20502;-49
2021/06/22 03:27:13;;;;;;;11.57;5.50;;;;;;;;;;5095070;28;20482;-57
2021/06/22 03:29:40;;;;;;;20.90;7.37;;;;;;;;;;5079159;28;20445;-59
2021/06/22 03:35:14;;;;;;;10.30;6.97;;;;;;;;;;5097132;28;20532;-56
2021/06/22 03:37:41;;;;;;;7.83;5.63;;;;;;;;;;5099223;28;20517;-58
2021/06/22 03:40:09;;;;;;;9.20;6.10;;;;;;;;;;5098714;28;20515;-57
2021/06/22 03:42:39;;;;;;;12.63;5.30;;;;;;;;;;5098940;28;20479;-56
2021/06/22 03:45:08;;;;;;;9.00;5.20;;;;;;;;;;5098900;28;20440;-56
2021/06/22 03:47:42;;;;;;;10.43;5.20;;;;;;;;;;5098873;28;20428;-56
2021/06/22 03:50:10;;;;;;;8.80;5.70;;;;;;;;;;5099041;28;20446;-55
2021/06/22 03:52:42;;;;;;;11.70;5.47;;;;;;;;;;5098153;28;20502;-61
2021/06/22 03:55:32;;;;;;;11.03;4.30;;;;;;;;;;5098441;28;20447;-55
2021/06/22 03:57:59;;;;;;;6.30;4.10;;;;;;;;;;5097328;28;20503;-54
2021/06/22 04:00:27;;;;;;;7.73;4.10;;;;;;;;;;5097971;28;20478;-55
2021/06/22 04:03:14;;;;;;;10.73;4.50;;;;;;;;;;5098653;28;20475;-58
2021/06/22 04:05:41;;;;;;;5.40;3.70;;;;;;;;;;5096384;28;20483;-55
2021/06/22 04:08:10;;;;;;;7.77;3.77;;;;;;;;;;5097879;28;20460;-52
2021/06/22 04:10:50;;;;;;;7.70;4.37;;;;;;;;;;5098630;28;20463;-60
2021/06/22 04:13:18;;;;;;;6.90;3.00;;;;;;;;;;5097839;28;20550;-49
2021/06/22 04:15:46;;;;;;;5.27;3.00;;;;;;;;;;5096365;28;20590;-55
2021/06/22 04:18:13;;;;;;;6.00;3.53;;;;;;;;;;5098154;28;20452;-59
2021/06/22 04:20:42;;;;;;;9.00;4.13;;;;;;;;;;5098211;28;20421;-59
2021/06/22 04:23:13;;;;;;;5.80;2.97;;;;;;;;;;5097868;28;20470;-55
2021/06/22 04:25:55;;;;;;;5.50;2.80;;;;;;;;;;5097409;28;20440;-56
2021/06/22 04:28:22;;;;;;;8.53;3.50;;;;;;;;;;5097571;28;20463;-56
2021/06/22 04:30:49;;;;;;;5.97;3.63;;;;;;;;;;5097089;28;20456;-51
2021/06/22 04:33:24;;;;;;;10.20;5.47;;;;;;;;;;5097211;28;20492;-59
2021/06/22 04:35:52;;;;;;;7.17;3.43;;;;;;;;;;5079614;28;20710;-58
2021/06/22 04:38:20;;;;;;;6.87;2.93;;;;;;;;;;5097454;28;20448;-58
2021/06/22 04:40:58;;;;;;;7.50;3.90;;;;;;;;;;5096886;28;20615;-57
2021/06/22 04:43:25;;;;;;;6.40;3.80;;;;;;;;;;5097499;28;20473;-54
2021/06/22 04:45:53;;;;;;;5.90;3.33;;;;;;;;;;5097666;28;20437;-57
2021/06/22 04:51:24;;;;;;;5.90;3.33;;;;;;;;;;5096781;28;20407;-57
2021/06/22 04:53:53;;;;;;;12.93;4.80;;;;;;;;;;5097427;28;20460;-57
2021/06/22 04:56:38;;;;;;;8.07;3.93;;;;;;;;;;5097474;28;20440;-56
2021/06/22 05:02:07;;;;;;;8.57;4.37;;;;;;;;;;5113294;27;1015459;-51
2021/06/22 05:04:35;;;;;;;7.90;4.33;;;;;;;;;;5119708;28;20248;-56
2021/06/22 05:07:03;;;;;;;9.27;3.93;;;;;;;;;;5130100;28;20480;-54
2021/06/22 05:09:36;;;;;;;9.77;4.00;;;;;;;;;;5134178;28;20490;-52
2021/06/22 05:12:03;;;;;;;9.67;4.50;;;;;;;;;;5124741;28;20501;-57
2021/06/22 05:14:30;;;;;;;7.77;4.50;;;;;;;;;;5133269;28;20485;-57
2021/06/22 05:20:07;;;;;;;10.90;3.93;;;;;;;;;;5143723;28;20471;-57
2021/06/22 05:22:35;;;;;;;8.00;4.20;;;;;;;;;;5153797;28;20450;-58
2021/06/22 05:25:14;;;;;;;7.33;3.60;;;;;;;;;;5154026;28;20457;-60
2021/06/22 05:27:41;;;;;;;8.13;4.93;;;;;;;;;;5153390;28;20547;-53
2021/06/22 05:30:09;;;;;;;8.17;4.07;;;;;;;;;;5152429;28;20414;-54
2021/06/22 05:33:02;;;;;;;7.93;4.03;;;;;;;;;;5151873;28;20497;-61
2021/06/22 05:35:31;;;;;;;8.90;3.70;;;;;;;;;;5152776;28;20469;-51
2021/06/22 05:37:58;;;;;;;10.10;4.30;;;;;;;;;;5152564;28;20458;-60
2021/06/22 05:40:38;;;;;;;12.13;4.00;;;;;;;;;;5152143;28;20542;-56
2021/06/22 05:43:05;;;;;;;8.20;3.97;;;;;;;;;;5150112;28;20499;-54
2021/06/22 05:45:33;;;;;;;6.90;3.40;;;;;;;;;;5157821;27;20457;-58
2021/06/22 05:48:00;;;;;;;8.50;3.97;;;;;;;;;;5152371;28;20462;-56
2021/06/22 05:50:30;;;;;;;10.30;3.97;;;;;;;;;;5151738;28;20446;-55
2021/06/22 05:53:06;;;;;;;7.67;4.17;;;;;;;;;;5151469;28;20422;-54
2021/06/22 05:55:34;;;;;;;10.00;4.33;;;;;;;;;;5148061;28;20458;-52
2021/06/22 05:58:01;;;;;;;8.70;4.97;;;;;;;;;;5148376;27;20518;-57
2021/06/22 06:00:31;;;;;;;7.53;3.93;;;;;;;;;;5150745;28;20522;-59
2021/06/22 06:03:00;;;;;;;12.23;5.23;;;;;;;;;;5152086;28;20481;-56
2021/06/22 06:05:29;;;;;;;11.70;5.13;;;;;;;;;;5152228;27;20450;-55
2021/06/22 06:07:56;;;;;;;10.80;5.50;;;;;;;;;;5151607;28;20453;-57
2021/06/22 06:10:25;;;;;;;9.10;4.97;;;;;;;;;;5149851;28;20565;-58
2021/06/22 06:13:11;;;;;;;14.50;5.37;;;;;;;;;;5121317;28;20587;-55
2021/06/22 06:15:49;;;;;;;9.77;5.53;;;;;;;;;;5133902;28;20618;-56
2021/06/22 06:18:18;;;;;;;8.37;4.23;;;;;;;;;;5138570;28;20442;-56
2021/06/22 06:20:50;;;;;;;8.00;5.13;;;;;;;;;;5137828;28;20754;-57
2021/06/22 06:23:18;;;;;;;7.17;3.93;;;;;;;;;;5137672;28;20466;-60
2021/06/22 06:25:48;;;;;;;8.70;3.93;;;;;;;;;;5137265;28;20457;-57
2021/06/22 06:28:19;;;;;;;10.47;4.13;;;;;;;;;;5136527;28;20550;-59
2021/06/22 06:30:46;;;;;;;12.00;4.03;;;;;;;;;;5138142;28;20447;-59
2021/06/22 06:33:31;;;;;;;13.57;4.70;;;;;;;;;;5137637;28;20514;-57
2021/06/22 06:35:59;;;;;;;10.60;4.47;;;;;;;;;;5138280;28;20453;-56
2021/06/22 06:38:35;;;;;;;9.50;4.30;;;;;;;;;;5137847;28;20548;-62
2021/06/22 06:41:22;;;;;;;13.27;4.87;;;;;;;;;;5137455;28;20748;-58
2021/06/22 06:43:50;;;;;;;8.50;3.80;;;;;;;;;;5137615;28;20439;-57
2021/06/22 06:46:21;;;;;;;8.40;4.10;;;;;;;;;;5119297;28;20455;-61
2021/06/22 06:49:00;;;;;;;7.17;3.60;;;;;;;;;;5124657;28;20477;-60
2021/06/22 06:51:27;;;;;;;9.90;4.10;;;;;;;;;;5121703;28;20477;-58
2021/06/22 06:53:54;;;;;;;9.83;3.77;;;;;;;;;;5137540;28;20512;-61
2021/06/22 06:56:24;;;;;;;7.70;3.97;;;;;;;;;;5137473;28;20519;-60
2021/06/22 06:58:51;;;;;;;11.97;3.83;;;;;;;;;;5137107;28;20468;-56
2021/06/22 07:01:18;;;;;;;7.87;4.00;;;;;;;;;;5136666;28;20489;-61
2021/06/22 07:03:55;;;;;;;12.57;3.83;;;;;;;;;;5137448;28;20431;-59
2021/06/22 07:06:23;;;;;;;6.80;3.80;;;;;;;;;;5122118;28;20450;-55
2021/06/22 07:08:53;;;;;;;8.37;3.53;;;;;;;;;;5115694;28;20645;-53
2021/06/22 07:11:48;;;;;;;8.47;4.17;;;;;;;;;;5116089;28;20544;-56
2021/06/22 07:14:17;;;;;;;8.60;3.17;;;;;;;;;;5116473;28;20447;-58
2021/06/22 07:16:47;;;;;;;9.83;3.90;;;;;;;;;;5127960;28;20442;-55
2021/06/22 07:19:15;;;;;;;7.10;3.50;;;;;;;;;;5136913;28;20658;-57
2021/06/22 07:21:43;;;;;;;6.90;4.00;;;;;;;;;;5136644;28;20477;-57
2021/06/22 07:24:11;;;;;;;9.37;3.90;;;;;;;;;;5135293;28;20466;-61
2021/06/22 07:26:39;;;;;;;7.00;3.43;;;;;;;;;;5135783;28;20465;-59
2021/06/22 07:29:17;;;;;;;6.50;3.00;;;;;;;;;;5136164;28;20466;-61
2021/06/22 07:31:47;;;;;;;9.50;4.53;;;;;;;;;;5130716;28;20446;-57
2021/06/22 07:34:14;;;;;;;6.30;2.90;;;;;;;;;;5137032;28;20505;-55
2021/06/22 07:36:42;;;;;;;6.33;3.23;;;;;;;;;;5137476;28;20441;-55
2021/06/22 07:42:02;;;;;;;7.53;2.97;;;;;;;;;;5136166;28;20494;-56
2021/06/22 07:44:51;;;;;;;6.77;2.90;;;;;;;;;;5127165;28;20455;-53
2021/06/22 07:50:49;;;;;;;5.90;3.37;;;;;;;;;;5134769;28;20473;-57
2021/06/22 07:53:19;;;;;;;6.53;3.23;;;;;;;;;;5135932;28;20509;-56
2021/06/22 07:55:46;;;;;;;8.10;3.00;;;;;;;;;;5136399;28;20446;-63
2021/06/22 07:58:44;;;;;;;12.10;3.53;;;;;;;;;;5130367;28;20463;-61
2021/06/22 08:01:12;;;;;;;9.03;3.83;;;;;;;;;;5127441;28;20567;-59
2021/06/22 08:03:42;;;;;;;7.03;3.50;;;;;;;;;;5118748;28;20543;-53
2021/06/22 08:06:12;;;;;;;16.10;4.40;;;;;;;;;;5136503;28;20442;-48
2021/06/22 08:08:41;;;;;;;6.80;3.40;;;;;;;;;;5136142;28;20478;-56
2021/06/22 08:11:08;;;;;;;7.73;3.03;;;;;;;;;;5136612;28;20454;-60
2021/06/22 08:13:36;;;;;;;8.17;3.40;;;;;;;;;;5136207;28;20454;-57
2021/06/22 08:16:05;;;;;;;6.73;3.40;;;;;;;;;;5134976;28;20496;-55
2021/06/22 08:18:33;;;;;;;6.70;3.33;;;;;;;;;;5135946;28;20438;-58
2021/06/22 08:21:29;;;;;;;5.30;2.50;;;;;;;;;;5136485;28;20481;-56
2021/06/22 08:23:58;;;;;;;6.40;2.43;;;;;;;;;;5137456;28;20450;-53
2021/06/22 08:26:39;;;;;;;4.57;2.37;;;;;;;;;;5135317;28;20423;-55
2021/06/22 08:29:43;;;;;;;5.20;2.73;;;;;;;;;;5136182;28;20437;-54
2021/06/22 08:32:11;;;;;;;6.70;2.70;;;;;;;;;;5135107;28;20446;-58
2021/06/22 08:34:51;;;;;;;5.87;2.20;;;;;;;;;;5134992;28;20472;-58
2021/06/22 08:37:24;;;;;;;7.10;2.50;;;;;;;;;;5135479;28;20533;-57
2021/06/22 08:39:53;;;;;;;7.03;2.50;;;;;;;;;;5135734;28;20468;-56
2021/06/22 08:42:24;;;;;;;6.67;2.50;;;;;;;;;;5135918;28;20486;-60
2021/06/22 08:44:54;;;;;;;6.57;2.70;;;;;;;;;;5135303;28;20438;-59
2021/06/22 08:47:22;;;;;;;6.80;2.50;;;;;;;;;;5135530;28;20422;-56
2021/06/22 08:50:22;;;;;;;6.10;2.70;;;;;;;;;;5135851;28;20442;-56
2021/06/22 08:52:59;;;;;;;11.73;4.00;;;;;;;;;;5127870;28;20454;-48
2021/06/22 08:58:31;;;;;;;7.27;3.20;;;;;;;;;;5123043;28;20400;-60
2021/06/22 09:00:59;;;;;;;6.03;2.87;;;;;;;;;;5135557;28;20487;-59
2021/06/22 09:03:45;;;;;;;5.80;2.70;;;;;;;;;;5135828;28;20525;-58
2021/06/22 09:06:13;;;;;;;6.37;2.67;;;;;;;;;;5133810;28;20519;-61
2021/06/22 09:08:40;;;;;;;7.03;2.77;;;;;;;;;;5134784;28;20514;-53
2021/06/22 09:11:12;;;;;;;9.73;3.00;;;;;;;;;;5135436;28;20458;-60
2021/06/22 09:13:44;;;;;;;10.73;2.97;;;;;;;;;;5119542;28;20447;-56
2021/06/22 09:16:14;;;;;;;6.53;2.43;;;;;;;;;;5124866;28;20470;-58
2021/06/22 09:18:51;;;;;;;6.80;2.80;;;;;;;;;;5134760;28;20449;-61
2021/06/22 09:21:22;;;;;;;12.93;2.97;;;;;;;;;;5134779;28;20507;-56
2021/06/22 09:23:49;;;;;;;7.63;2.70;;;;;;;;;;5115746;28;20444;-59
2021/06/22 09:26:24;;;;;;;6.80;3.50;;;;;;;;;;5135247;28;20482;-61
2021/06/22 09:29:22;;;;;;;6.80;3.60;;;;;;;;;;5120780;28;20469;-60
2021/06/22 09:31:50;;;;;;;7.00;2.83;;;;;;;;;;5116432;28;20638;-58
2021/06/22 09:34:25;;;;;;;7.53;3.37;;;;;;;;;;5114745;28;20602;-60
2021/06/22 09:37:20;;;;;;;6.00;3.17;;;;;;;;;;5127742;28;20511;-61
2021/06/22 09:39:48;;;;;;;6.83;2.97;;;;;;;;;;5134786;28;20454;-62
2021/06/22 09:42:27;;;;;;;11.37;3.27;;;;;;;;;;5115448;28;20576;-60
2021/06/22 09:45:16;;;;;;;5.70;3.33;;;;;;;;;;5114074;28;20447;-57
2021/06/22 09:48:00;;;;;;;10.87;3.53;;;;;;;;;;5119923;28;20481;-59
2021/06/22 09:50:35;;;;;;;12.40;3.27;;;;;;;;;;5131509;28;20473;-59
2021/06/22 09:56:21;;;;;;;7.57;2.67;;;;;;;;;;5116168;28;20457;-63
2021/06/22 09:58:51;;;;;;;9.70;3.70;;;;;;;;;;5117440;28;20467;-62
2021/06/22 10:01:45;;;;;;;10.03;3.17;;;;;;;;;;5117418;28;20444;-63
2021/06/22 10:04:17;;;;;;;13.83;4.07;;;;;;;;;;5131813;28;20434;-63
2021/06/22 10:06:49;;;;;;;8.37;4.20;;;;;;;;;;5137513;28;20530;-61
2021/06/22 10:09:47;;;;;;;8.10;4.20;;;;;;;;;;5128256;28;20455;-57
2021/06/22 10:12:18;;;;;;;9.97;3.70;;;;;;;;;;5126522;28;20442;-58
2021/06/22 10:14:50;;;;;;;8.63;3.90;;;;;;;;;;5135931;28;20473;-56
2021/06/22 10:17:28;;;;;;;8.93;4.07;;;;;;;;;;5117923;28;20447;-61
2021/06/22 10:20:11;;;;;;;8.50;4.03;;;;;;;;;;5132804;28;20454;-57
2021/06/22 10:22:43;;;;;;;6.77;3.90;;;;;;;;;;5134866;28;20481;-58
2021/06/22 10:25:15;;;;;;;6.07;3.13;;;;;;;;;;5137074;28;20443;-57
2021/06/22 10:27:44;;;;;;;6.60;3.90;;;;;;;;;;5136863;28;20436;-58
2021/06/22 10:30:15;;;;;;;10.73;4.00;;;;;;;;;;5137858;28;20513;-59
2021/06/22 10:33:11;;;;;;;6.90;2.97;;;;;;;;;;5137344;28;20442;-55
2021/06/22 10:35:45;;;;;;;5.83;3.30;;;;;;;;;;5117522;28;20513;-62
2021/06/22 10:38:15;;;;;;;7.57;3.40;;;;;;;;;;5133641;28;20474;-60
2021/06/22 10:40:43;;;;;;;6.43;3.87;;;;;;;;;;5137250;28;20489;-61
2021/06/22 10:43:11;;;;;;;9.27;3.80;;;;;;;;;;5137423;28;20486;-57
2021/06/22 10:51:27;;;;;;;6.70;3.20;;;;;;;;;;5138359;27;20561;-58
2021/06/22 10:53:56;;;;;;;6.93;3.83;;;;;;;;;;5137975;28;20265;-60
2021/06/22 10:56:25;;;;;;;5.27;3.10;;;;;;;;;;5138099;28;20450;-56
2021/06/22 10:59:11;;;;;;;7.30;4.10;;;;;;;;;;5131340;28;20515;-59
2021/06/22 11:01:54;;;;;;;5.87;3.03;;;;;;;;;;5136985;28;20501;-56
2021/06/22 11:04:34;;;;;;;5.90;3.13;;;;;;;;;;5134843;28;20496;-59
2021/06/22 11:07:40;;;;;;;5.83;2.93;;;;;;;;;;5137210;28;20442;-53
2021/06/22 11:10:14;;;;;;;7.13;3.80;;;;;;;;;;5136633;28;20471;-54
2021/06/22 11:12:54;;;;;;;4.73;3.07;;;;;;;;;;5137128;28;20864;-59
2021/06/22 11:15:51;;;;;;;6.97;3.50;;;;;;;;;;5137507;28;20472;-62
2021/06/22 11:18:23;;;;;;;6.97;3.40;;;;;;;;;;5115377;28;20494;-54
2021/06/22 11:21:07;;;;;;;5.63;3.80;;;;;;;;;;5134417;28;20439;-61
2021/06/22 11:23:56;;;;;;;7.00;3.10;;;;;;;;;;5136311;28;20497;-55
2021/06/22 11:26:26;;;;;;;12.23;3.73;;;;;;;;;;5136944;28;20525;-52
2021/06/22 11:28:55;;;;;;;5.40;3.13;;;;;;;;;;5136338;28;20463;-59
2021/06/22 11:31:41;;;;;;;9.70;3.97;;;;;;;;;;5124037;28;20525;-60
2021/06/22 11:34:17;;;;;;;7.03;3.57;;;;;;;;;;5136032;28;20481;-56
2021/06/22 11:36:56;;;;;;;7.00;3.73;;;;;;;;;;5136814;28;20484;-57
2021/06/22 11:39:29;;;;;;;9.80;4.10;;;;;;;;;;5136488;28;20888;-54
2021/06/22 11:42:24;;;;;;;7.43;3.87;;;;;;;;;;5133434;28;20455;-58
2021/06/22 11:44:57;;;;;;;6.77;4.07;;;;;;;;;;5133844;28;20471;-59
2021/06/22 11:47:46;;;;;;;7.80;4.30;;;;;;;;;;5136774;28;20538;-63
2021/06/22 11:50:20;;;;;;;14.03;4.33;;;;;;;;;;5136761;28;20466;-60
2021/06/22 11:52:51;;;;;;;7.03;3.90;;;;;;;;;;5136766;28;20461;-55
2021/06/22 11:55:42;;;;;;;12.67;4.80;;;;;;;;;;5136747;28;20490;-55
2021/06/22 11:58:09;;;;;;;8.30;4.70;;;;;;;;;;5127607;28;20537;-60
2021/06/22 12:00:38;;;;;;;7.93;4.20;;;;;;;;;;5116035;28;20439;-59
2021/06/22 12:03:12;;;;;;;8.57;5.30;;;;;;;;;;5115692;28;20668;-60
2021/06/22 12:06:02;;;;;;;6.67;4.27;;;;;;;;;;5132015;28;20466;-59
2021/06/22 12:11:36;;;;;;;9.80;4.27;;;;;;;;;;5135054;28;20433;-58
2021/06/22 12:14:15;;;;;;;6.93;4.00;;;;;;;;;;5133497;28;20502;-57
2021/06/22 12:16:58;;;;;;;8.10;3.90;;;;;;;;;;5129936;28;20446;-53
2021/06/22 12:19:27;;;;;;;14.20;5.20;;;;;;;;;;5135708;28;20443;-59
2021/06/22 12:21:57;;;;;;;8.77;4.10;;;;;;;;;;5132515;28;20462;-57
2021/06/22 12:27:30;;;;;;;6.40;3.77;;;;;;;;;;5133687;28;20493;-57
2021/06/22 12:30:00;;;;;;;9.00;4.20;;;;;;;;;;5132170;28;20452;-57
2021/06/22 12:32:41;;;;;;;4.90;3.20;;;;;;;;;;5135825;28;20477;-55
2021/06/22 12:35:10;;;;;;;6.30;3.43;;;;;;;;;;5133313;28;20486;-60
2021/06/22 12:37:42;;;;;;;8.73;4.80;;;;;;;;;;5134406;28;20501;-57
2021/06/22 12:40:28;;;;;;;8.10;3.40;;;;;;;;;;5136102;28;20455;-58
2021/06/22 12:42:55;;;;;;;10.50;3.60;;;;;;;;;;5135868;28;20527;-55
2021/06/22 12:45:29;;;;;;;6.60;3.73;;;;;;;;;;5135384;28;20490;-55
2021/06/22 12:47:59;;;;;;;7.77;3.60;;;;;;;;;;5134823;28;20446;-62
2021/06/22 12:50:29;;;;;;;7.50;3.63;;;;;;;;;;5135942;28;20442;-57
2021/06/22 12:53:00;;;;;;;9.23;4.47;;;;;;;;;;5134231;28;20926;-60
2021/06/22 12:55:37;;;;;;;7.13;3.80;;;;;;;;;;5129416;28;20474;-63
2021/06/22 12:58:06;;;;;;;11.83;4.37;;;;;;;;;;5115923;28;20467;-58
2021/06/22 13:00:47;;;;;;;6.60;4.27;;;;;;;;;;5115216;28;20438;-54
2021/06/22 13:03:16;;;;;;;8.17;4.77;;;;;;;;;;5133081;28;20486;-56
2021/06/22 13:05:44;;;;;;;11.83;5.50;;;;;;;;;;5135236;28;20442;-59
2021/06/22 13:08:23;;;;;;;8.93;5.40;;;;;;;;;;5134984;28;20478;-59
2021/06/22 13:10:51;;;;;;;8.00;4.80;;;;;;;;;;5135493;28;20466;-56
2021/06/22 13:13:22;;;;;;;10.30;5.10;;;;;;;;;;5135329;28;20438;-56
2021/06/22 13:15:53;;;;;;;7.43;4.40;;;;;;;;;;5131231;28;20461;-59
2021/06/22 13:18:27;;;;;;;7.33;4.90;;;;;;;;;;5114778;28;20446;-58
2021/06/22 13:23:45;;;;;;;7.87;4.27;;;;;;;;;;5134281;28;20458;-57
2021/06/22 13:29:20;;;;;;;8.97;4.10;;;;;;;;;;5096934;28;20440;-53
2021/06/22 13:31:53;;;;;;;6.77;4.60;;;;;;;;;;5097282;28;20474;-55
2021/06/22 13:37:52;;;;;;;7.40;4.70;;;;;;;;;;5089268;28;20451;-55
2021/06/22 13:40:25;;;;;;;6.87;4.53;;;;;;;;;;5095340;28;20448;-61
2021/06/22 13:43:24;;;;;;;7.63;5.20;;;;;;;;;;5099879;28;20491;-56
2021/06/22 13:46:10;;;;;;;7.83;6.10;;;;;;;;;;5097992;28;20439;-57
2021/06/22 13:49:12;;;;;;;9.20;5.47;;;;;;;;;;5092866;28;20609;-59
2021/06/22 13:55:04;;;;;;;9.40;5.60;;;;;;;;;;5100646;28;20425;-61
2021/06/22 13:57:56;;;;;;;12.80;6.63;;;;;;;;;;5123642;28;20503;-61
2021/06/22 14:00:29;;;;;;;11.20;6.90;;;;;;;;;;5121119;28;20451;-58
2021/06/22 14:02:58;;;;;;;13.20;6.37;;;;;;;;;;5139491;28;20476;-60
2021/06/22 14:05:29;;;;;;;10.00;6.37;;;;;;;;;;5137488;28;20458;-56
2021/06/22 14:07:57;;;;;;;10.33;7.00;;;;;;;;;;5139286;28;20446;-54
2021/06/22 14:10:50;;;;;;;11.90;6.93;;;;;;;;;;5121607;28;20495;-57
2021/06/22 14:13:37;;;;;;;13.20;8.17;;;;;;;;;;5138846;28;20438;-65
2021/06/22 14:16:05;;;;;;;11.37;7.43;;;;;;;;;;5139058;28;20458;-54
2021/06/22 14:18:32;;;;;;;13.90;8.93;;;;;;;;;;5139293;28;20423;-54
2021/06/22 14:21:13;;;;;;;17.50;8.77;;;;;;;;;;5139513;28;20502;-59
2021/06/22 14:23:41;;;;;;;13.17;8.10;;;;;;;;;;5139044;28;20512;-51
2021/06/22 14:26:21;;;;;;;11.07;7.80;;;;;;;;;;5139306;28;20450;-59
2021/06/22 14:28:58;;;;;;;12.30;7.57;;;;;;;;;;5129174;28;20446;-57
2021/06/22 14:31:33;;;;;;;12.63;7.33;;;;;;;;;;5139551;28;20517;-58
2021/06/22 14:34:05;;;;;;;13.87;8.03;;;;;;;;;;5138678;28;20454;-58
2021/06/22 14:36:32;;;;;;;13.50;7.70;;;;;;;;;;5134513;28;20450;-54
2021/06/22 14:39:06;;;;;;;15.23;7.97;;;;;;;;;;5138861;28;20438;-57
2021/06/22 14:41:37;;;;;;;16.27;7.73;;;;;;;;;;5136739;28;20433;-56
2021/06/22 14:44:06;;;;;;;13.63;9.93;;;;;;;;;;5133705;28;20505;-59
2021/06/22 14:52:32;;;;;;;16.70;10.27;;;;;;;;;;5136365;28;20580;-60
2021/06/22 14:54:59;;;;;;;14.50;10.50;;;;;;;;;;5138768;28;20453;-57
2021/06/22 14:57:26;;;;;;;17.40;10.20;;;;;;;;;;5138824;28;20721;-54
2021/06/22 14:59:56;;;;;;;24.83;17.30;;;;;;;;;;5138438;28;20518;-55
2021/06/22 15:02:24;;;;;;;23.30;11.13;;;;;;;;;;5138904;28;20419;-60
2021/06/22 15:04:57;;;;;;;20.43;12.17;;;;;;;;;;5133247;28;20462;-57
2021/06/22 15:07:25;;;;;;;20.17;13.30;;;;;;;;;;5117895;28;20458;-52
2021/06/22 15:09:52;;;;;;;24.67;14.13;;;;;;;;;;5118563;28;20451;-58
2021/06/22 15:12:32;;;;;;;23.17;17.30;;;;;;;;;;5118021;28;20447;-57
2021/06/22 15:15:01;;;;;;;23.87;15.70;;;;;;;;;;5128678;28;20482;-62
2021/06/22 15:17:32;;;;;;;28.47;18.23;;;;;;;;;;5136896;28;20468;-57
2021/06/22 15:20:10;;;;;;;21.03;15.43;;;;;;;;;;5129606;28;20806;-62
2021/06/22 15:22:53;;;;;;;34.60;26.93;;;;;;;;;;5131842;28;20454;-59
2021/06/22 15:25:48;;;;;;;30.73;19.30;;;;;;;;;;5136265;28;20491;-59
2021/06/22 15:28:19;;;;;;;26.40;17.70;;;;;;;;;;5137788;28;20435;-57
2021/06/22 15:30:51;;;;;;;25.37;17.13;;;;;;;;;;5137686;28;20466;-59
2021/06/22 15:33:21;;;;;;;33.27;24.13;;;;;;;;;;5136975;28;20462;-58
2021/06/22 15:35:58;;;;;;;23.73;16.60;;;;;;;;;;5132913;28;20462;-54
2021/06/22 15:38:29;;;;;;;21.60;16.27;;;;;;;;;;5137659;28;20818;-55
2021/06/22 15:40:58;;;;;;;18.57;13.87;;;;;;;;;;5137668;28;20488;-61
2021/06/22 15:43:27;;;;;;;21.40;15.37;;;;;;;;;;5137517;28;20478;-55
2021/06/22 15:46:00;;;;;;;20.73;15.53;;;;;;;;;;5126608;28;20447;-53
2021/06/22 15:48:46;;;;;;;20.93;14.87;;;;;;;;;;5137500;27;20515;-57
2021/06/22 15:51:13;;;;;;;19.13;13.73;;;;;;;;;;5132526;27;20486;-55
2021/06/22 15:53:40;;;;;;;112.37;83.33;;;;;;;;;;5158309;27;20494;-56
2021/06/22 15:56:40;;;;;;;21.47;14.87;;;;;;;;;;5116996;28;20504;-56
2021/06/22 15:59:12;;;;;;;18.23;13.33;;;;;;;;;;5131388;28;20531;-56
2021/06/22 16:01:43;;;;;;;20.83;11.83;;;;;;;;;;5137418;28;20469;-58
2021/06/22 16:04:47;;;;;;;22.97;12.87;;;;;;;;;;5137447;28;20486;-57
2021/06/22 16:07:18;;;;;;;20.67;12.90;;;;;;;;;;5130632;28;20486;-58
2021/06/22 16:09:53;;;;;;;20.20;11.93;;;;;;;;;;5136892;28;20451;-56
2021/06/22 16:12:33;;;;;;;18.37;12.30;;;;;;;;;;5136772;28;20438;-59
2021/06/22 16:15:02;;;;;;;17.20;11.10;;;;;;;;;;5134232;28;20482;-54